sensor_id;sensor_type;location;lat;lon;timestamp;P1;durP1;ratioP1;P2;durP2;ratioP2
22080;SDS011;11207;59.512;18.050;2023-07-13T00:01:50;5.97;;;2.90;;
22080;SDS011;11207;59.512;18.050;2023-07-13T00:04:20;5.00;;;3.07;;
22080;SDS011;11207;59.512;18.050;2023-07-13T00:06:49;3.60;;;3.20;;
22080;SDS011;11207;59.512;18.050;2023-07-13T00:09:15;3.40;;;2.80;;
22080;SDS011;11207;59.512;18.050;2023-07-13T00:11:42;5.20;;;2.80;;
22080;SDS011;11207;59.512;18.050;2023-07-13T00:14:09;3.23;;;2.93;;
22080;SDS011;11207;59.512;18.050;2023-07-13T00:16:36;4.40;;;2.90;;
22080;SDS011;11207;59.512;18.050;2023-07-13T00:19:03;3.60;;;2.77;;
22080;SDS011;11207;59.512;18.050;2023-07-13T00:21:30;3.23;;;2.93;;
22080;SDS011;11207;59.512;18.050;2023-07-13T00:23:56;5.07;;;3.00;;
22080;SDS011;11207;59.512;18.050;2023-07-13T00:26:22;3.13;;;2.83;;
22080;SDS011;11207;59.512;18.050;2023-07-13T00:28:48;3.13;;;2.83;;
22080;SDS011;11207;59.512;18.050;2023-07-13T00:31:13;4.23;;;3.07;;
22080;SDS011;11207;59.512;18.050;2023-07-13T00:33:39;3.50;;;3.00;;
22080;SDS011;11207;59.512;18.050;2023-07-13T00:36:05;3.27;;;2.90;;
22080;SDS011;11207;59.512;18.050;2023-07-13T00:38:31;3.10;;;2.80;;
22080;SDS011;11207;59.512;18.050;2023-07-13T00:40:57;4.80;;;2.90;;
22080;SDS011;11207;59.512;18.050;2023-07-13T00:43:23;3.20;;;2.80;;
22080;SDS011;11207;59.512;18.050;2023-07-13T00:48:18;7.17;;;2.63;;
22080;SDS011;11207;59.512;18.050;2023-07-13T00:50:46;3.80;;;2.73;;
22080;SDS011;11207;59.512;18.050;2023-07-13T00:53:16;2.47;;;2.27;;
22080;SDS011;11207;59.512;18.050;2023-07-13T00:55:43;2.80;;;2.60;;
22080;SDS011;11207;59.512;18.050;2023-07-13T00:58:09;3.73;;;2.87;;
22080;SDS011;11207;59.512;18.050;2023-07-13T01:00:35;5.10;;;2.63;;
22080;SDS011;11207;59.512;18.050;2023-07-13T01:03:03;4.43;;;2.40;;
22080;SDS011;11207;59.512;18.050;2023-07-13T01:05:30;2.93;;;2.63;;
22080;SDS011;11207;59.512;18.050;2023-07-13T01:07:58;3.17;;;2.87;;
22080;SDS011;11207;59.512;18.050;2023-07-13T01:10:25;3.10;;;2.80;;
22080;SDS011;11207;59.512;18.050;2023-07-13T01:12:52;3.00;;;2.70;;
22080;SDS011;11207;59.512;18.050;2023-07-13T01:18:09;3.00;;;2.70;;
22080;SDS011;11207;59.512;18.050;2023-07-13T01:20:40;2.77;;;2.23;;
22080;SDS011;11207;59.512;18.050;2023-07-13T01:23:07;5.37;;;2.93;;
22080;SDS011;11207;59.512;18.050;2023-07-13T01:25:35;2.77;;;2.53;;
22080;SDS011;11207;59.512;18.050;2023-07-13T01:28:05;2.93;;;2.73;;
22080;SDS011;11207;59.512;18.050;2023-07-13T01:30:33;5.83;;;3.17;;
22080;SDS011;11207;59.512;18.050;2023-07-13T01:33:00;2.60;;;2.40;;
22080;SDS011;11207;59.512;18.050;2023-07-13T01:35:27;3.07;;;2.60;;
22080;SDS011;11207;59.512;18.050;2023-07-13T01:37:53;4.53;;;2.50;;
22080;SDS011;11207;59.512;18.050;2023-07-13T01:40:18;2.80;;;2.60;;
22080;SDS011;11207;59.512;18.050;2023-07-13T01:42:44;3.50;;;3.03;;
22080;SDS011;11207;59.512;18.050;2023-07-13T01:45:10;2.83;;;2.63;;
22080;SDS011;11207;59.512;18.050;2023-07-13T01:47:36;3.27;;;2.77;;
22080;SDS011;11207;59.512;18.050;2023-07-13T01:50:02;2.97;;;2.67;;
22080;SDS011;11207;59.512;18.050;2023-07-13T01:52:28;3.30;;;3.00;;
22080;SDS011;11207;59.512;18.050;2023-07-13T01:54:53;5.27;;;3.23;;
22080;SDS011;11207;59.512;18.050;2023-07-13T01:57:19;7.10;;;3.50;;
22080;SDS011;11207;59.512;18.050;2023-07-13T01:59:45;4.13;;;3.60;;
22080;SDS011;11207;59.512;18.050;2023-07-13T02:02:10;7.77;;;3.00;;
22080;SDS011;11207;59.512;18.050;2023-07-13T02:04:36;4.20;;;3.17;;
22080;SDS011;11207;59.512;18.050;2023-07-13T02:07:01;3.30;;;2.80;;
22080;SDS011;11207;59.512;18.050;2023-07-13T02:09:27;3.27;;;2.97;;
22080;SDS011;11207;59.512;18.050;2023-07-13T02:11:53;3.07;;;2.77;;
22080;SDS011;11207;59.512;18.050;2023-07-13T02:14:18;3.80;;;2.60;;
22080;SDS011;11207;59.512;18.050;2023-07-13T02:16:44;3.50;;;2.80;;
22080;SDS011;11207;59.512;18.050;2023-07-13T02:19:09;3.87;;;2.87;;
22080;SDS011;11207;59.512;18.050;2023-07-13T02:21:35;4.10;;;3.00;;
22080;SDS011;11207;59.512;18.050;2023-07-13T02:24:01;3.73;;;3.03;;
22080;SDS011;11207;59.512;18.050;2023-07-13T02:26:26;6.73;;;2.97;;
22080;SDS011;11207;59.512;18.050;2023-07-13T02:28:53;4.13;;;2.83;;
22080;SDS011;11207;59.512;18.050;2023-07-13T02:31:19;4.47;;;3.10;;
22080;SDS011;11207;59.512;18.050;2023-07-13T02:33:44;3.50;;;2.73;;
22080;SDS011;11207;59.512;18.050;2023-07-13T02:36:11;3.77;;;2.50;;
22080;SDS011;11207;59.512;18.050;2023-07-13T02:38:37;3.20;;;2.60;;
22080;SDS011;11207;59.512;18.050;2023-07-13T02:41:03;3.27;;;2.80;;
22080;SDS011;11207;59.512;18.050;2023-07-13T02:43:30;6.53;;;3.30;;
22080;SDS011;11207;59.512;18.050;2023-07-13T02:45:56;3.03;;;2.57;;
22080;SDS011;11207;59.512;18.050;2023-07-13T02:48:21;3.60;;;2.90;;
22080;SDS011;11207;59.512;18.050;2023-07-13T02:50:47;3.50;;;2.80;;
22080;SDS011;11207;59.512;18.050;2023-07-13T02:53:12;4.10;;;2.70;;
22080;SDS011;11207;59.512;18.050;2023-07-13T02:55:38;2.90;;;2.60;;
22080;SDS011;11207;59.512;18.050;2023-07-13T02:58:05;3.27;;;2.83;;
22080;SDS011;11207;59.512;18.050;2023-07-13T03:00:31;2.50;;;2.30;;
22080;SDS011;11207;59.512;18.050;2023-07-13T03:02:57;3.23;;;2.93;;
22080;SDS011;11207;59.512;18.050;2023-07-13T03:05:23;5.80;;;3.10;;
22080;SDS011;11207;59.512;18.050;2023-07-13T03:07:49;6.67;;;3.23;;
22080;SDS011;11207;59.512;18.050;2023-07-13T03:10:14;4.17;;;2.90;;
22080;SDS011;11207;59.512;18.050;2023-07-13T03:12:41;3.00;;;2.57;;
22080;SDS011;11207;59.512;18.050;2023-07-13T03:15:07;3.97;;;3.10;;
22080;SDS011;11207;59.512;18.050;2023-07-13T03:17:32;3.87;;;2.93;;
22080;SDS011;11207;59.512;18.050;2023-07-13T03:19:58;2.97;;;2.77;;
22080;SDS011;11207;59.512;18.050;2023-07-13T03:22:23;5.40;;;2.63;;
22080;SDS011;11207;59.512;18.050;2023-07-13T03:24:49;3.27;;;2.80;;
22080;SDS011;11207;59.512;18.050;2023-07-13T03:27:15;4.03;;;3.10;;
22080;SDS011;11207;59.512;18.050;2023-07-13T03:29:42;3.77;;;2.77;;
22080;SDS011;11207;59.512;18.050;2023-07-13T03:32:08;5.80;;;3.13;;
22080;SDS011;11207;59.512;18.050;2023-07-13T03:34:34;3.17;;;2.90;;
22080;SDS011;11207;59.512;18.050;2023-07-13T03:37:00;4.77;;;3.27;;
22080;SDS011;11207;59.512;18.050;2023-07-13T03:39:25;2.97;;;2.70;;
22080;SDS011;11207;59.512;18.050;2023-07-13T03:41:51;5.13;;;2.87;;
22080;SDS011;11207;59.512;18.050;2023-07-13T03:44:18;5.93;;;3.10;;
22080;SDS011;11207;59.512;18.050;2023-07-13T03:46:44;4.77;;;2.90;;
22080;SDS011;11207;59.512;18.050;2023-07-13T03:49:10;3.60;;;2.97;;
22080;SDS011;11207;59.512;18.050;2023-07-13T03:51:36;7.23;;;3.57;;
22080;SDS011;11207;59.512;18.050;2023-07-13T03:54:02;4.97;;;3.30;;
22080;SDS011;11207;59.512;18.050;2023-07-13T03:56:28;6.67;;;3.30;;
22080;SDS011;11207;59.512;18.050;2023-07-13T03:58:55;4.80;;;3.53;;
22080;SDS011;11207;59.512;18.050;2023-07-13T04:01:22;6.03;;;3.17;;
22080;SDS011;11207;59.512;18.050;2023-07-13T04:03:49;3.60;;;3.10;;
22080;SDS011;11207;59.512;18.050;2023-07-13T04:06:20;3.53;;;3.17;;
22080;SDS011;11207;59.512;18.050;2023-07-13T04:08:50;6.80;;;3.60;;
22080;SDS011;11207;59.512;18.050;2023-07-13T04:11:18;4.37;;;3.20;;
22080;SDS011;11207;59.512;18.050;2023-07-13T04:13:45;5.63;;;3.70;;
22080;SDS011;11207;59.512;18.050;2023-07-13T04:16:12;6.50;;;3.27;;
22080;SDS011;11207;59.512;18.050;2023-07-13T04:18:38;4.97;;;3.50;;
22080;SDS011;11207;59.512;18.050;2023-07-13T04:21:04;6.93;;;3.20;;
22080;SDS011;11207;59.512;18.050;2023-07-13T04:23:29;3.17;;;2.83;;
22080;SDS011;11207;59.512;18.050;2023-07-13T04:25:55;5.10;;;3.00;;
22080;SDS011;11207;59.512;18.050;2023-07-13T04:28:22;5.27;;;3.40;;
22080;SDS011;11207;59.512;18.050;2023-07-13T04:30:49;6.43;;;3.23;;
22080;SDS011;11207;59.512;18.050;2023-07-13T04:33:15;5.53;;;3.10;;
22080;SDS011;11207;59.512;18.050;2023-07-13T04:35:42;6.40;;;3.40;;
22080;SDS011;11207;59.512;18.050;2023-07-13T04:38:08;3.70;;;2.67;;
22080;SDS011;11207;59.512;18.050;2023-07-13T04:40:36;6.23;;;3.30;;
22080;SDS011;11207;59.512;18.050;2023-07-13T04:43:02;3.57;;;3.27;;
22080;SDS011;11207;59.512;18.050;2023-07-13T04:45:27;4.27;;;2.83;;
22080;SDS011;11207;59.512;18.050;2023-07-13T04:47:53;6.57;;;2.67;;
22080;SDS011;11207;59.512;18.050;2023-07-13T04:50:18;7.63;;;3.03;;
22080;SDS011;11207;59.512;18.050;2023-07-13T04:52:48;2.73;;;2.50;;
22080;SDS011;11207;59.512;18.050;2023-07-13T04:55:15;4.80;;;2.70;;
22080;SDS011;11207;59.512;18.050;2023-07-13T04:57:40;4.13;;;2.60;;
22080;SDS011;11207;59.512;18.050;2023-07-13T05:00:06;6.43;;;2.30;;
22080;SDS011;11207;59.512;18.050;2023-07-13T05:02:33;3.03;;;2.00;;
22080;SDS011;11207;59.512;18.050;2023-07-13T05:05:00;4.67;;;2.13;;
22080;SDS011;11207;59.512;18.050;2023-07-13T05:07:26;5.17;;;2.47;;
22080;SDS011;11207;59.512;18.050;2023-07-13T05:09:52;2.50;;;2.20;;
22080;SDS011;11207;59.512;18.050;2023-07-13T05:12:17;4.60;;;2.10;;
22080;SDS011;11207;59.512;18.050;2023-07-13T05:14:44;3.97;;;2.40;;
22080;SDS011;11207;59.512;18.050;2023-07-13T05:17:10;5.33;;;2.03;;
22080;SDS011;11207;59.512;18.050;2023-07-13T05:19:37;3.10;;;2.03;;
22080;SDS011;11207;59.512;18.050;2023-07-13T05:22:02;3.50;;;2.03;;
22080;SDS011;11207;59.512;18.050;2023-07-13T05:24:29;6.53;;;2.17;;
22080;SDS011;11207;59.512;18.050;2023-07-13T05:26:55;6.77;;;2.30;;
22080;SDS011;11207;59.512;18.050;2023-07-13T05:29:21;6.43;;;2.22;;
22080;SDS011;11207;59.512;18.050;2023-07-13T05:31:47;3.33;;;2.03;;
22080;SDS011;11207;59.512;18.050;2023-07-13T05:34:13;5.47;;;2.00;;
22080;SDS011;11207;59.512;18.050;2023-07-13T05:36:39;5.07;;;2.22;;
22080;SDS011;11207;59.512;18.050;2023-07-13T05:39:05;3.85;;;2.05;;
22080;SDS011;11207;59.512;18.050;2023-07-13T05:41:31;2.12;;;1.80;;
22080;SDS011;11207;59.512;18.050;2023-07-13T05:43:57;6.65;;;2.20;;
22080;SDS011;11207;59.512;18.050;2023-07-13T05:46:22;3.47;;;2.08;;
22080;SDS011;11207;59.512;18.050;2023-07-13T05:48:48;7.25;;;2.00;;
22080;SDS011;11207;59.512;18.050;2023-07-13T05:51:14;5.85;;;1.95;;
22080;SDS011;11207;59.512;18.050;2023-07-13T05:53:39;5.62;;;2.05;;
22080;SDS011;11207;59.512;18.050;2023-07-13T05:56:05;5.55;;;2.12;;
22080;SDS011;11207;59.512;18.050;2023-07-13T05:58:30;4.85;;;2.00;;
22080;SDS011;11207;59.512;18.050;2023-07-13T06:01:04;4.87;;;1.80;;
22080;SDS011;11207;59.512;18.050;2023-07-13T06:03:31;5.40;;;2.10;;
22080;SDS011;11207;59.512;18.050;2023-07-13T06:05:57;3.40;;;1.90;;
22080;SDS011;11207;59.512;18.050;2023-07-13T06:08:25;3.83;;;2.00;;
22080;SDS011;11207;59.512;18.050;2023-07-13T06:10:51;4.30;;;2.30;;
22080;SDS011;11207;59.512;18.050;2023-07-13T06:13:17;3.17;;;1.83;;
22080;SDS011;11207;59.512;18.050;2023-07-13T06:15:47;4.97;;;2.00;;
22080;SDS011;11207;59.512;18.050;2023-07-13T06:18:16;4.32;;;1.70;;
22080;SDS011;11207;59.512;18.050;2023-07-13T06:20:41;6.53;;;1.87;;
22080;SDS011;11207;59.512;18.050;2023-07-13T06:23:07;3.67;;;2.00;;
22080;SDS011;11207;59.512;18.050;2023-07-13T06:25:33;3.33;;;1.95;;
22080;SDS011;11207;59.512;18.050;2023-07-13T06:27:59;6.15;;;2.10;;
22080;SDS011;11207;59.512;18.050;2023-07-13T06:30:25;3.63;;;1.83;;
22080;SDS011;11207;59.512;18.050;2023-07-13T06:32:52;3.28;;;2.00;;
22080;SDS011;11207;59.512;18.050;2023-07-13T06:35:17;6.40;;;2.28;;
22080;SDS011;11207;59.512;18.050;2023-07-13T06:37:43;4.10;;;1.90;;
22080;SDS011;11207;59.512;18.050;2023-07-13T06:40:09;3.57;;;1.67;;
22080;SDS011;11207;59.512;18.050;2023-07-13T06:42:35;3.42;;;1.90;;
22080;SDS011;11207;59.512;18.050;2023-07-13T06:45:01;3.93;;;2.00;;
22080;SDS011;11207;59.512;18.050;2023-07-13T06:47:27;3.33;;;2.00;;
22080;SDS011;11207;59.512;18.050;2023-07-13T06:49:53;7.45;;;1.87;;
22080;SDS011;11207;59.512;18.050;2023-07-13T06:52:19;3.75;;;1.70;;
22080;SDS011;11207;59.512;18.050;2023-07-13T06:54:44;5.62;;;1.90;;
22080;SDS011;11207;59.512;18.050;2023-07-13T06:57:10;2.70;;;1.73;;
22080;SDS011;11207;59.512;18.050;2023-07-13T06:59:36;5.28;;;1.87;;
22080;SDS011;11207;59.512;18.050;2023-07-13T07:02:02;3.97;;;1.73;;
22080;SDS011;11207;59.512;18.050;2023-07-13T07:04:27;2.58;;;1.80;;
22080;SDS011;11207;59.512;18.050;2023-07-13T07:06:54;2.80;;;1.77;;
22080;SDS011;11207;59.512;18.050;2023-07-13T07:09:19;5.33;;;1.80;;
22080;SDS011;11207;59.512;18.050;2023-07-13T07:11:45;3.92;;;1.62;;
22080;SDS011;11207;59.512;18.050;2023-07-13T07:14:10;5.33;;;1.70;;
22080;SDS011;11207;59.512;18.050;2023-07-13T07:16:36;6.57;;;2.15;;
22080;SDS011;11207;59.512;18.050;2023-07-13T07:19:02;5.93;;;1.95;;
22080;SDS011;11207;59.512;18.050;2023-07-13T07:21:27;2.00;;;1.42;;
22080;SDS011;11207;59.512;18.050;2023-07-13T07:23:53;4.97;;;1.70;;
22080;SDS011;11207;59.512;18.050;2023-07-13T07:26:19;4.15;;;2.08;;
22080;SDS011;11207;59.512;18.050;2023-07-13T07:28:44;8.25;;;1.92;;
22080;SDS011;11207;59.512;18.050;2023-07-13T07:31:10;2.08;;;1.50;;
22080;SDS011;11207;59.512;18.050;2023-07-13T07:33:36;2.58;;;1.42;;
22080;SDS011;11207;59.512;18.050;2023-07-13T07:36:02;2.53;;;1.67;;
22080;SDS011;11207;59.512;18.050;2023-07-13T07:38:28;3.05;;;1.50;;
22080;SDS011;11207;59.512;18.050;2023-07-13T07:40:54;5.80;;;1.85;;
22080;SDS011;11207;59.512;18.050;2023-07-13T07:43:20;4.18;;;1.83;;
22080;SDS011;11207;59.512;18.050;2023-07-13T07:45:45;2.65;;;1.50;;
22080;SDS011;11207;59.512;18.050;2023-07-13T07:48:11;3.55;;;1.60;;
22080;SDS011;11207;59.512;18.050;2023-07-13T07:50:37;2.30;;;1.37;;
22080;SDS011;11207;59.512;18.050;2023-07-13T07:53:03;3.03;;;1.40;;
22080;SDS011;11207;59.512;18.050;2023-07-13T07:55:32;2.80;;;1.80;;
22080;SDS011;11207;59.512;18.050;2023-07-13T07:57:59;4.80;;;1.48;;
22080;SDS011;11207;59.512;18.050;2023-07-13T08:00:24;3.60;;;1.40;;
22080;SDS011;11207;59.512;18.050;2023-07-13T08:02:50;2.15;;;1.40;;
22080;SDS011;11207;59.512;18.050;2023-07-13T08:05:16;3.08;;;1.60;;
22080;SDS011;11207;59.512;18.050;2023-07-13T08:07:41;7.12;;;1.60;;
22080;SDS011;11207;59.512;18.050;2023-07-13T08:10:07;3.60;;;1.55;;
22080;SDS011;11207;59.512;18.050;2023-07-13T08:12:37;2.72;;;1.60;;
22080;SDS011;11207;59.512;18.050;2023-07-13T08:15:04;1.80;;;1.20;;
22080;SDS011;11207;59.512;18.050;2023-07-13T08:17:31;6.20;;;1.73;;
22080;SDS011;11207;59.512;18.050;2023-07-13T08:19:57;3.70;;;1.50;;
22080;SDS011;11207;59.512;18.050;2023-07-13T08:22:23;3.40;;;1.73;;
22080;SDS011;11207;59.512;18.050;2023-07-13T08:24:48;3.10;;;1.55;;
22080;SDS011;11207;59.512;18.050;2023-07-13T08:27:21;3.83;;;1.65;;
22080;SDS011;11207;59.512;18.050;2023-07-13T08:29:50;3.62;;;1.50;;
22080;SDS011;11207;59.512;18.050;2023-07-13T08:32:17;3.22;;;1.40;;
22080;SDS011;11207;59.512;18.050;2023-07-13T08:34:43;2.70;;;1.10;;
22080;SDS011;11207;59.512;18.050;2023-07-13T08:37:09;2.45;;;1.15;;
22080;SDS011;11207;59.512;18.050;2023-07-13T08:39:35;2.22;;;1.27;;
22080;SDS011;11207;59.512;18.050;2023-07-13T08:42:02;3.92;;;1.30;;
22080;SDS011;11207;59.512;18.050;2023-07-13T08:47:37;1.87;;;1.30;;
22080;SDS011;11207;59.512;18.050;2023-07-13T08:50:10;1.55;;;1.30;;
22080;SDS011;11207;59.512;18.050;2023-07-13T08:52:39;4.40;;;1.20;;
22080;SDS011;11207;59.512;18.050;2023-07-13T08:55:12;4.12;;;1.33;;
22080;SDS011;11207;59.512;18.050;2023-07-13T08:57:48;4.40;;;1.50;;
22080;SDS011;11207;59.512;18.050;2023-07-13T09:00:19;5.03;;;1.20;;
22080;SDS011;11207;59.512;18.050;2023-07-13T09:02:46;3.95;;;1.35;;
22080;SDS011;11207;59.512;18.050;2023-07-13T09:05:22;3.15;;;1.35;;
22080;SDS011;11207;59.512;18.050;2023-07-13T09:16:37;2.08;;;1.20;;
22080;SDS011;11207;59.512;18.050;2023-07-13T09:19:05;1.75;;;1.45;;
22080;SDS011;11207;59.512;18.050;2023-07-13T09:21:39;1.85;;;1.00;;
22080;SDS011;11207;59.512;18.050;2023-07-13T09:24:22;3.85;;;1.52;;
22080;SDS011;11207;59.512;18.050;2023-07-13T09:26:55;3.53;;;1.33;;
22080;SDS011;11207;59.512;18.050;2023-07-13T09:29:26;4.53;;;1.17;;
22080;SDS011;11207;59.512;18.050;2023-07-13T09:31:57;5.37;;;1.40;;
22080;SDS011;11207;59.512;18.050;2023-07-13T09:34:28;2.03;;;1.10;;
22080;SDS011;11207;59.512;18.050;2023-07-13T09:36:55;2.70;;;1.48;;
22080;SDS011;11207;59.512;18.050;2023-07-13T09:39:29;1.83;;;1.00;;
22080;SDS011;11207;59.512;18.050;2023-07-13T09:42:01;2.08;;;1.00;;
22080;SDS011;11207;59.512;18.050;2023-07-13T09:44:38;2.83;;;1.42;;
22080;SDS011;11207;59.512;18.050;2023-07-13T09:47:15;7.55;;;1.37;;
22080;SDS011;11207;59.512;18.050;2023-07-13T09:49:42;4.40;;;1.65;;
22080;SDS011;11207;59.512;18.050;2023-07-13T09:52:12;3.03;;;1.65;;
22080;SDS011;11207;59.512;18.050;2023-07-13T09:54:43;5.43;;;1.50;;
22080;SDS011;11207;59.512;18.050;2023-07-13T09:57:12;2.78;;;1.55;;
22080;SDS011;11207;59.512;18.050;2023-07-13T09:59:42;4.68;;;1.55;;
22080;SDS011;11207;59.512;18.050;2023-07-13T10:05:04;2.28;;;1.23;;
22080;SDS011;11207;59.512;18.050;2023-07-13T10:07:34;2.47;;;1.20;;
22080;SDS011;11207;59.512;18.050;2023-07-13T10:10:12;7.25;;;1.85;;
22080;SDS011;11207;59.512;18.050;2023-07-13T10:12:43;2.40;;;1.27;;
22080;SDS011;11207;59.512;18.050;2023-07-13T10:15:13;2.08;;;1.12;;
22080;SDS011;11207;59.512;18.050;2023-07-13T10:17:42;2.40;;;1.05;;
22080;SDS011;11207;59.512;18.050;2023-07-13T10:20:09;2.15;;;1.20;;
22080;SDS011;11207;59.512;18.050;2023-07-13T10:25:34;1.67;;;1.40;;
22080;SDS011;11207;59.512;18.050;2023-07-13T10:28:05;2.47;;;1.50;;
22080;SDS011;11207;59.512;18.050;2023-07-13T10:30:35;2.55;;;1.40;;
22080;SDS011;11207;59.512;18.050;2023-07-13T10:33:08;4.55;;;1.33;;
22080;SDS011;11207;59.512;18.050;2023-07-13T10:35:36;2.75;;;1.27;;
22080;SDS011;11207;59.512;18.050;2023-07-13T10:38:07;2.12;;;1.30;;
22080;SDS011;11207;59.512;18.050;2023-07-13T10:43:14;2.87;;;1.35;;
22080;SDS011;11207;59.512;18.050;2023-07-13T10:45:45;2.20;;;1.25;;
22080;SDS011;11207;59.512;18.050;2023-07-13T10:48:15;3.60;;;1.33;;
22080;SDS011;11207;59.512;18.050;2023-07-13T10:50:42;1.83;;;1.25;;
22080;SDS011;11207;59.512;18.050;2023-07-13T10:53:20;3.80;;;1.30;;
22080;SDS011;11207;59.512;18.050;2023-07-13T10:58:22;3.05;;;1.40;;
22080;SDS011;11207;59.512;18.050;2023-07-13T11:03:28;3.45;;;1.52;;
22080;SDS011;11207;59.512;18.050;2023-07-13T11:06:08;2.22;;;1.05;;
22080;SDS011;11207;59.512;18.050;2023-07-13T11:18:44;3.53;;;1.52;;
22080;SDS011;11207;59.512;18.050;2023-07-13T11:21:18;2.47;;;1.40;;
22080;SDS011;11207;59.512;18.050;2023-07-13T11:23:51;4.10;;;1.60;;
22080;SDS011;11207;59.512;18.050;2023-07-13T11:31:57;2.80;;;1.20;;
22080;SDS011;11207;59.512;18.050;2023-07-13T11:34:43;2.05;;;1.25;;
22080;SDS011;11207;59.512;18.050;2023-07-13T11:37:12;7.00;;;1.75;;
22080;SDS011;11207;59.512;18.050;2023-07-13T11:39:43;2.05;;;1.10;;
22080;SDS011;11207;59.512;18.050;2023-07-13T11:42:12;1.98;;;1.05;;
22080;SDS011;11207;59.512;18.050;2023-07-13T11:44:45;2.92;;;1.20;;
22080;SDS011;11207;59.512;18.050;2023-07-13T11:47:17;2.90;;;1.30;;
22080;SDS011;11207;59.512;18.050;2023-07-13T11:49:53;2.78;;;1.25;;
22080;SDS011;11207;59.512;18.050;2023-07-13T11:52:34;2.05;;;1.10;;
22080;SDS011;11207;59.512;18.050;2023-07-13T11:55:03;2.30;;;1.15;;
22080;SDS011;11207;59.512;18.050;2023-07-13T11:57:41;2.58;;;1.10;;
22080;SDS011;11207;59.512;18.050;2023-07-13T12:00:16;4.30;;;1.37;;
22080;SDS011;11207;59.512;18.050;2023-07-13T12:02:46;1.45;;;1.00;;
22080;SDS011;11207;59.512;18.050;2023-07-13T12:05:15;4.45;;;1.20;;
22080;SDS011;11207;59.512;18.050;2023-07-13T12:07:48;1.87;;;1.10;;
22080;SDS011;11207;59.512;18.050;2023-07-13T12:10:23;1.70;;;1.10;;
22080;SDS011;11207;59.512;18.050;2023-07-13T12:15:36;2.85;;;1.27;;
22080;SDS011;11207;59.512;18.050;2023-07-13T12:18:10;2.08;;;1.23;;
22080;SDS011;11207;59.512;18.050;2023-07-13T12:20:45;2.83;;;1.33;;
22080;SDS011;11207;59.512;18.050;2023-07-13T12:23:18;3.67;;;1.20;;
22080;SDS011;11207;59.512;18.050;2023-07-13T12:25:49;5.93;;;1.40;;
22080;SDS011;11207;59.512;18.050;2023-07-13T12:28:22;2.83;;;1.00;;
22080;SDS011;11207;59.512;18.050;2023-07-13T12:31:25;4.70;;;1.30;;
22080;SDS011;11207;59.512;18.050;2023-07-13T12:34:02;1.98;;;1.10;;
22080;SDS011;11207;59.512;18.050;2023-07-13T12:36:33;1.60;;;1.08;;
22080;SDS011;11207;59.512;18.050;2023-07-13T12:39:13;2.95;;;1.10;;
22080;SDS011;11207;59.512;18.050;2023-07-13T12:41:53;2.67;;;1.17;;
22080;SDS011;11207;59.512;18.050;2023-07-13T12:44:27;2.00;;;1.17;;
22080;SDS011;11207;59.512;18.050;2023-07-13T12:46:55;3.10;;;1.58;;
22080;SDS011;11207;59.512;18.050;2023-07-13T12:49:24;6.40;;;1.27;;
22080;SDS011;11207;59.512;18.050;2023-07-13T12:51:57;3.83;;;1.27;;
22080;SDS011;11207;59.512;18.050;2023-07-13T12:54:25;5.68;;;1.42;;
22080;SDS011;11207;59.512;18.050;2023-07-13T12:56:52;5.12;;;1.58;;
22080;SDS011;11207;59.512;18.050;2023-07-13T12:59:21;4.65;;;1.30;;
22080;SDS011;11207;59.512;18.050;2023-07-13T13:01:48;1.95;;;1.20;;
22080;SDS011;11207;59.512;18.050;2023-07-13T13:04:15;5.30;;;1.55;;
22080;SDS011;11207;59.512;18.050;2023-07-13T13:06:41;5.55;;;1.67;;
22080;SDS011;11207;59.512;18.050;2023-07-13T13:09:12;3.00;;;1.20;;
22080;SDS011;11207;59.512;18.050;2023-07-13T13:11:40;3.35;;;1.58;;
22080;SDS011;11207;59.512;18.050;2023-07-13T13:14:06;3.60;;;1.30;;
22080;SDS011;11207;59.512;18.050;2023-07-13T13:16:53;2.42;;;1.20;;
22080;SDS011;11207;59.512;18.050;2023-07-13T13:19:22;3.15;;;1.37;;
22080;SDS011;11207;59.512;18.050;2023-07-13T13:21:50;4.25;;;1.60;;
22080;SDS011;11207;59.512;18.050;2023-07-13T13:24:18;4.32;;;1.75;;
22080;SDS011;11207;59.512;18.050;2023-07-13T13:26:46;2.12;;;1.15;;
22080;SDS011;11207;59.512;18.050;2023-07-13T13:29:17;4.00;;;1.35;;
22080;SDS011;11207;59.512;18.050;2023-07-13T13:31:45;3.90;;;1.50;;
22080;SDS011;11207;59.512;18.050;2023-07-13T13:34:15;1.77;;;1.05;;
22080;SDS011;11207;59.512;18.050;2023-07-13T13:36:42;3.17;;;1.25;;
22080;SDS011;11207;59.512;18.050;2023-07-13T13:41:49;7.62;;;1.45;;
22080;SDS011;11207;59.512;18.050;2023-07-13T13:44:16;2.60;;;1.37;;
22080;SDS011;11207;59.512;18.050;2023-07-13T13:46:44;5.12;;;1.33;;
22080;SDS011;11207;59.512;18.050;2023-07-13T13:49:13;3.22;;;1.40;;
22080;SDS011;11207;59.512;18.050;2023-07-13T13:51:42;2.35;;;1.30;;
22080;SDS011;11207;59.512;18.050;2023-07-13T13:54:14;2.45;;;1.20;;
22080;SDS011;11207;59.512;18.050;2023-07-13T13:56:42;1.92;;;1.08;;
22080;SDS011;11207;59.512;18.050;2023-07-13T13:59:08;2.17;;;1.00;;
22080;SDS011;11207;59.512;18.050;2023-07-13T14:01:34;3.50;;;1.40;;
22080;SDS011;11207;59.512;18.050;2023-07-13T14:04:00;3.03;;;1.17;;
22080;SDS011;11207;59.512;18.050;2023-07-13T14:06:26;1.48;;;1.00;;
22080;SDS011;11207;59.512;18.050;2023-07-13T14:08:53;7.90;;;1.65;;
22080;SDS011;11207;59.512;18.050;2023-07-13T14:11:20;4.22;;;1.40;;
22080;SDS011;11207;59.512;18.050;2023-07-13T14:13:54;1.65;;;1.10;;
22080;SDS011;11207;59.512;18.050;2023-07-13T14:16:22;1.20;;;1.10;;
22080;SDS011;11207;59.512;18.050;2023-07-13T14:18:53;2.25;;;1.40;;
22080;SDS011;11207;59.512;18.050;2023-07-13T14:21:19;2.33;;;1.08;;
22080;SDS011;11207;59.512;18.050;2023-07-13T14:23:46;1.48;;;1.10;;
22080;SDS011;11207;59.512;18.050;2023-07-13T14:26:14;3.25;;;1.27;;
22080;SDS011;11207;59.512;18.050;2023-07-13T14:28:42;1.92;;;1.20;;
22080;SDS011;11207;59.512;18.050;2023-07-13T14:31:10;2.12;;;1.33;;
22080;SDS011;11207;59.512;18.050;2023-07-13T14:33:37;3.83;;;1.30;;
22080;SDS011;11207;59.512;18.050;2023-07-13T14:36:03;3.70;;;1.27;;
22080;SDS011;11207;59.512;18.050;2023-07-13T14:38:50;1.42;;;1.33;;
22080;SDS011;11207;59.512;18.050;2023-07-13T14:41:15;3.33;;;1.30;;
22080;SDS011;11207;59.512;18.050;2023-07-13T14:43:41;2.12;;;1.10;;
22080;SDS011;11207;59.512;18.050;2023-07-13T14:46:07;2.17;;;1.00;;
22080;SDS011;11207;59.512;18.050;2023-07-13T14:48:43;4.95;;;1.50;;
22080;SDS011;11207;59.512;18.050;2023-07-13T14:51:09;1.35;;;1.10;;
22080;SDS011;11207;59.512;18.050;2023-07-13T14:53:35;1.87;;;1.27;;
22080;SDS011;11207;59.512;18.050;2023-07-13T14:56:08;3.12;;;1.30;;
22080;SDS011;11207;59.512;18.050;2023-07-13T14:58:37;1.23;;;1.00;;
22080;SDS011;11207;59.512;18.050;2023-07-13T15:01:07;2.28;;;1.00;;
22080;SDS011;11207;59.512;18.050;2023-07-13T15:03:41;3.12;;;1.20;;
22080;SDS011;11207;59.512;18.050;2023-07-13T15:06:13;1.77;;;1.20;;
22080;SDS011;11207;59.512;18.050;2023-07-13T15:08:39;2.92;;;1.37;;
22080;SDS011;11207;59.512;18.050;2023-07-13T15:11:06;3.28;;;1.30;;
22080;SDS011;11207;59.512;18.050;2023-07-13T15:13:32;1.83;;;1.30;;
22080;SDS011;11207;59.512;18.050;2023-07-13T15:15:59;1.33;;;1.10;;
22080;SDS011;11207;59.512;18.050;2023-07-13T15:18:25;3.00;;;1.73;;
22080;SDS011;11207;59.512;18.050;2023-07-13T15:20:52;2.35;;;1.30;;
22080;SDS011;11207;59.512;18.050;2023-07-13T15:23:21;2.10;;;1.35;;
22080;SDS011;11207;59.512;18.050;2023-07-13T15:25:51;2.17;;;1.10;;
22080;SDS011;11207;59.512;18.050;2023-07-13T15:28:17;2.47;;;1.52;;
22080;SDS011;11207;59.512;18.050;2023-07-13T15:30:43;2.72;;;1.15;;